Atwell, West Virginia
Current Conditions -  °F | °C
As of 3:15 AM on Monday 26 Jan 2015 (Local Time) from KJFZ Reporting Station
Overcast Overcast  
Wind Chill: 37°   Ceiling: 2900
Heat Index: 41°   Visibility: 10mi
Dew Point: 29°   Wind: 7mph
Humidity: 63%   Direction: 240°WSW
Pressure: 29.61"   Gusts: NA
Location:  37.3433°N, 81.7826°W
Report Text: KJFZ 260815Z AUTO 24006KT 10SM OVC029 05/M01 A2961 RMK AO2 T00511014
Loading
Personal Weather Stations






























Interactive Weather Map New forecast layout! Learn more

10-Day Weather Forecast

Advertisements
Track Severe Weather on mobile